Time;durP1;ratioP1;P1;durP2;ratioP2;P2;SDS_P1;SDS_P2;PMS_P1;PMS_P2;Temp;Humidity;BMP_temperature;BMP_pressure;BME280_temperature;BME280_humidity;BME280_pressure;Samples;Min_cycle;Max_cycle;Signal;HPM_P1;HPM_P2
2022/12/21 00:02:03;;;;;;;24.08;13.48;;;20.70;62.10;;;;;;5074701;28;20036;-66
2022/12/21 00:04:29;;;;;;;24.45;12.75;;;20.70;62.30;;;;;;5077401;28;20031;-67
2022/12/21 00:06:56;;;;;;;22.23;12.43;;;20.80;62.20;;;;;;5084449;28;20056;-67
2022/12/21 00:09:23;;;;;;;22.35;12.63;;;20.70;62.20;;;;;;5022673;28;20044;-67
2022/12/21 00:11:49;;;;;;;23.35;11.82;;;20.70;62.20;;;;;;5073312;28;20086;-67
2022/12/21 00:14:15;;;;;;;25.02;12.73;;;20.70;62.30;;;;;;5055361;28;20113;-67
2022/12/21 00:16:42;;;;;;;23.60;13.13;;;20.60;62.40;;;;;;5065985;28;20047;-67
2022/12/21 00:19:12;;;;;;;25.58;13.25;;;20.60;62.50;;;;;;5070933;28;20141;-67
2022/12/21 00:21:38;;;;;;;22.38;12.77;;;20.70;62.40;;;;;;5055918;28;20037;-66
2022/12/21 00:24:04;;;;;;;22.70;13.52;;;20.70;62.50;;;;;;5053557;28;20121;-68
2022/12/21 00:26:33;;;;;;;21.30;12.55;;;20.60;62.20;;;;;;5053648;28;20119;-66
2022/12/21 00:28:59;;;;;;;22.23;12.98;;;20.60;62.30;;;;;;5059519;28;20028;-67
2022/12/21 00:31:31;;;;;;;27.02;14.43;;;20.50;62.50;;;;;;5061375;28;20032;-67
2022/12/21 00:33:57;;;;;;;25.77;14.63;;;20.50;62.40;;;;;;5034765;28;20758;-67
2022/12/21 00:36:25;;;;;;;23.90;14.05;;;20.50;62.50;;;;;;5072297;28;20040;-67
2022/12/21 00:38:51;;;;;;;28.58;14.85;;;20.50;62.70;;;;;;5036649;28;20162;-67
2022/12/21 00:41:20;;;;;;;21.85;13.13;;;20.60;62.60;;;;;;5052282;28;20037;-67
2022/12/21 00:43:47;;;;;;;27.85;15.15;;;20.50;62.60;;;;;;5053987;28;20028;-67
2022/12/21 00:46:22;;;;;;;24.90;14.07;;;20.60;62.50;;;;;;5061271;28;20035;-67
2022/12/21 00:48:49;;;;;;;30.30;15.30;;;20.60;62.50;;;;;;5056174;28;20547;-66
2022/12/21 00:51:17;;;;;;;27.80;13.95;;;20.60;62.40;;;;;;5069459;28;20097;-67
2022/12/21 00:53:43;;;;;;;22.33;12.65;;;20.70;62.50;;;;;;5043162;28;20081;-67
2022/12/21 00:56:10;;;;;;;22.90;12.43;;;20.60;62.20;;;;;;5072901;28;20063;-67
2022/12/21 00:58:37;;;;;;;23.15;12.73;;;20.60;62.10;;;;;;5042110;28;20033;-67
2022/12/21 01:01:13;;;;;;;20.35;12.00;;;20.60;62.00;;;;;;5066608;28;20392;-67
2022/12/21 01:03:40;;;;;;;20.05;11.15;;;20.60;62.00;;;;;;5052556;28;20025;-67
2022/12/21 01:06:09;;;;;;;21.70;10.95;;;20.60;62.40;;;;;;5058435;28;20044;-67
2022/12/21 01:08:35;;;;;;;21.92;11.70;;;20.60;62.40;;;;;;5092682;28;20036;-68
2022/12/21 01:11:03;;;;;;;24.35;12.00;;;20.60;62.50;;;;;;5090706;28;20058;-67
2022/12/21 01:13:31;;;;;;;18.80;11.55;;;20.50;62.60;;;;;;5085349;28;20129;-67
2022/12/21 01:15:57;;;;;;;25.20;11.65;;;20.40;62.60;;;;;;5077803;28;20033;-67
2022/12/21 01:18:24;;;;;;;21.58;10.65;;;20.50;62.90;;;;;;5070391;28;20428;-67
2022/12/21 01:20:54;;;;;;;19.30;11.73;;;20.40;62.90;;;;;;5078648;28;20057;-67
2022/12/21 01:23:21;;;;;;;22.67;10.80;;;20.50;62.70;;;;;;5092030;28;20369;-67
2022/12/21 01:25:48;;;;;;;19.48;9.95;;;20.50;62.80;;;;;;5079158;28;20040;-67
2022/12/21 01:28:16;;;;;;;22.13;11.10;;;20.60;62.80;;;;;;5086047;28;20036;-67
2022/12/21 01:30:42;;;;;;;18.30;10.65;;;20.40;62.50;;;;;;5080751;28;20035;-66
2022/12/21 01:33:18;;;;;;;20.60;11.15;;;20.50;62.40;;;;;;5083930;28;20038;-67
2022/12/21 01:35:45;;;;;;;18.45;10.38;;;20.50;62.60;;;;;;5090038;28;20036;-67
2022/12/21 01:38:12;;;;;;;22.98;11.82;;;20.40;62.40;;;;;;5044969;28;20469;-67
2022/12/21 01:40:39;;;;;;;24.98;10.20;;;20.40;62.50;;;;;;5072072;28;20017;-66
2022/12/21 01:43:38;;;;;;;21.08;10.73;;;20.40;62.60;;;;;;5072417;28;20033;-67
2022/12/21 01:46:07;;;;;;;21.80;10.93;;;20.50;62.80;;;;;;5075556;28;20040;-67
2022/12/21 01:48:39;;;;;;;19.33;10.98;;;20.40;62.70;;;;;;5071255;28;20093;-68
2022/12/21 01:51:06;;;;;;;16.80;10.15;;;20.60;62.60;;;;;;5076910;28;20039;-67
2022/12/21 01:53:38;;;;;;;17.98;10.15;;;20.50;62.50;;;;;;5092069;28;20028;-67
2022/12/21 01:56:08;;;;;;;20.95;10.77;;;20.50;62.40;;;;;;5090266;28;20028;-67
2022/12/21 01:58:35;;;;;;;21.52;10.82;;;20.50;62.50;;;;;;5085969;28;20032;-67
2022/12/21 02:01:03;;;;;;;20.08;11.55;;;20.60;62.50;;;;;;5065241;28;20036;-65
2022/12/21 02:03:37;;;;;;;21.52;10.88;;;20.60;62.30;;;;;;5042650;28;20055;-67
2022/12/21 02:06:24;;;;;;;20.55;10.82;;;20.60;62.40;;;;;;5032162;28;20055;-67
2022/12/21 02:08:51;;;;;;;25.02;11.77;;;20.50;62.30;;;;;;5048958;28;20040;-67
2022/12/21 02:11:17;;;;;;;20.48;11.15;;;20.50;62.40;;;;;;4999072;28;20502;-67
2022/12/21 02:13:43;;;;;;;20.15;10.52;;;20.40;62.40;;;;;;5055318;28;20048;-67
2022/12/21 02:16:38;;;;;;;21.17;11.65;;;20.40;62.40;;;;;;5044370;28;20132;-67
2022/12/21 02:19:36;;;;;;;17.20;10.02;;;20.40;62.50;;;;;;5051047;28;20035;-67
2022/12/21 02:22:27;;;;;;;16.83;9.52;;;20.40;62.40;;;;;;5051430;28;20052;-67
2022/12/21 02:25:11;;;;;;;17.08;9.40;;;20.30;62.90;;;;;;5007340;28;20029;-66
2022/12/21 02:27:46;;;;;;;19.60;11.30;;;20.20;62.80;;;;;;5002293;28;20047;-67
2022/12/21 02:30:17;;;;;;;19.35;9.98;;;20.40;62.70;;;;;;5004837;28;20115;-67
2022/12/21 02:32:49;;;;;;;19.23;10.25;;;20.40;62.70;;;;;;5004752;28;20495;-67
2022/12/21 02:35:17;;;;;;;20.25;9.80;;;20.30;62.50;;;;;;5017618;28;20034;-67
2022/12/21 02:37:53;;;;;;;20.40;10.65;;;20.30;62.40;;;;;;5011984;28;20041;-67
2022/12/21 02:40:44;;;;;;;18.83;10.82;;;20.30;62.10;;;;;;5026463;28;20384;-67
2022/12/21 02:46:22;;;;;;;19.58;11.15;;;20.40;62.20;;;;;;5009948;28;20084;-67
2022/12/21 02:49:20;;;;;;;23.02;11.02;;;20.30;62.50;;;;;;5027859;28;20041;-67
2022/12/21 02:52:05;;;;;;;18.23;9.20;;;20.20;62.50;;;;;;5009041;28;20436;-67
2022/12/21 02:54:34;;;;;;;22.55;11.07;;;20.40;62.50;;;;;;4992431;28;20034;-68
2022/12/21 02:57:00;;;;;;;24.25;11.43;;;20.30;62.30;;;;;;5010350;28;20069;-67
2022/12/21 02:59:31;;;;;;;19.40;10.52;;;20.40;62.20;;;;;;4993691;28;20679;-67
2022/12/21 03:02:33;;;;;;;21.48;12.07;;;20.40;62.10;;;;;;5049807;28;20071;-67
2022/12/21 03:05:24;;;;;;;19.77;11.82;;;20.40;62.10;;;;;;5069482;28;20503;-69
2022/12/21 03:08:10;;;;;;;17.08;10.38;;;20.40;61.90;;;;;;5069645;28;20044;-67
2022/12/21 03:10:36;;;;;;;20.30;11.25;;;20.40;61.90;;;;;;5070500;28;20571;-69
2022/12/21 03:13:20;;;;;;;20.23;10.40;;;20.30;62.00;;;;;;5070137;28;20241;-69
2022/12/21 03:16:32;;;;;;;21.33;12.00;;;20.30;62.10;;;;;;5087516;28;20089;-69
2022/12/21 03:19:24;;;;;;;20.90;10.75;;;20.30;62.00;;;;;;4954302;28;20531;-67
2022/12/21 03:22:04;;;;;;;16.90;10.52;;;20.20;61.60;;;;;;5007854;28;20044;-69
2022/12/21 03:24:48;;;;;;;21.13;10.38;;;20.10;61.50;;;;;;5008288;28;20637;-69
2022/12/21 03:27:26;;;;;;;22.27;10.85;;;20.10;61.40;;;;;;4990796;28;20495;-69
2022/12/21 03:30:00;;;;;;;20.50;10.63;;;20.10;61.00;;;;;;5001838;28;20041;-68
2022/12/21 03:32:40;;;;;;;23.92;11.93;;;20.00;60.80;;;;;;4992387;28;20042;-68
2022/12/21 03:35:20;;;;;;;17.80;9.57;;;20.00;60.50;;;;;;4992240;28;20061;-68
2022/12/21 03:37:47;;;;;;;21.70;11.63;;;20.00;60.30;;;;;;4988101;28;20049;-68
2022/12/21 03:40:21;;;;;;;25.25;13.25;;;20.10;60.10;;;;;;4988641;28;20081;-69
2022/12/21 03:42:54;;;;;;;21.33;11.95;;;20.20;59.90;;;;;;4998768;28;20087;-69
2022/12/21 03:45:23;;;;;;;;;;;20.10;59.70;;;;;;5001885;28;20065;-69
2022/12/21 03:48:04;;;;;;;20.52;11.40;;;20.20;59.50;;;;;;4987667;28;20048;-69
2022/12/21 03:50:36;;;;;;;22.45;11.65;;;20.20;59.10;;;;;;5006372;28;20046;-69
2022/12/21 03:53:17;;;;;;;21.20;11.50;;;20.20;59.00;;;;;;5008136;28;20041;-68
2022/12/21 03:55:45;;;;;;;21.27;10.57;;;20.20;58.80;;;;;;5032828;28;20037;-68
2022/12/21 03:58:11;;;;;;;22.02;11.23;;;20.30;58.70;;;;;;5083063;28;20029;-68
2022/12/21 04:00:46;;;;;;;17.48;10.10;;;20.10;58.30;;;;;;5074433;28;20027;-68
2022/12/21 04:03:25;;;;;;;19.38;10.75;;;20.20;58.10;;;;;;5069820;28;20107;-68
2022/12/21 04:06:03;;;;;;;22.15;11.10;;;20.20;58.20;;;;;;5076327;28;20404;-68
2022/12/21 04:08:30;;;;;;;18.95;10.55;;;20.10;58.00;;;;;;5066579;28;20061;-69
2022/12/21 04:10:58;;;;;;;23.40;10.93;;;20.10;58.00;;;;;;5068466;28;20071;-68
2022/12/21 04:13:24;;;;;;;16.10;9.35;;;20.10;57.90;;;;;;5060022;28;20056;-70
2022/12/21 04:16:05;;;;;;;20.52;11.57;;;20.00;57.70;;;;;;5063546;28;20021;-68
2022/12/21 04:21:17;;;;;;;19.95;9.95;;;19.90;57.60;;;;;;5050527;28;20151;-69
2022/12/21 04:29:13;;;;;;;23.17;12.35;;;20.00;57.30;;;;;;5057332;28;20032;-69
2022/12/21 04:31:39;;;;;;;22.83;11.60;;;20.00;57.60;;;;;;5056031;28;20032;-69
2022/12/21 04:34:05;;;;;;;18.83;11.48;;;20.00;57.50;;;;;;5053728;28;20378;-67
2022/12/21 04:39:16;;;;;;;18.23;11.02;;;20.00;57.30;;;;;;5067137;28;20028;-69
2022/12/21 04:41:41;;;;;;;19.50;11.80;;;20.10;57.30;;;;;;5066413;28;20029;-69
2022/12/21 04:44:07;;;;;;;24.80;12.07;;;20.10;57.20;;;;;;5069140;28;20110;-68
2022/12/21 04:46:33;;;;;;;26.13;12.27;;;20.20;57.00;;;;;;5066953;28;20378;-69
2022/12/21 04:48:59;;;;;;;19.70;10.90;;;20.10;57.00;;;;;;5071872;28;20037;-68
2022/12/21 04:51:25;;;;;;;20.30;10.40;;;20.10;57.10;;;;;;5072604;28;20047;-69
2022/12/21 04:53:52;;;;;;;22.20;12.07;;;20.10;57.10;;;;;;5020600;28;20041;-68
2022/12/21 04:56:18;;;;;;;20.65;12.10;;;20.10;57.00;;;;;;5071770;28;20032;-68
2022/12/21 04:58:45;;;;;;;20.42;11.35;;;20.10;56.90;;;;;;5065839;28;20029;-69
2022/12/21 05:01:17;;;;;;;20.23;11.38;;;20.10;56.80;;;;;;5052054;28;20029;-69
2022/12/21 05:03:43;;;;;;;20.77;11.52;;;20.10;56.70;;;;;;5052584;28;20486;-67
2022/12/21 05:06:11;;;;;;;21.05;11.43;;;20.10;56.50;;;;;;5068888;28;20098;-68
2022/12/21 05:08:37;;;;;;;25.67;12.52;;;20.10;56.50;;;;;;5072729;28;20040;-68
2022/12/21 05:11:11;;;;;;;22.75;12.45;;;20.10;56.50;;;;;;5072840;28;20070;-69
2022/12/21 05:13:37;;;;;;;22.10;10.40;;;20.20;56.50;;;;;;5034263;28;20041;-69
2022/12/21 05:16:06;;;;;;;21.77;11.05;;;20.00;56.20;;;;;;5060048;28;20385;-69
2022/12/21 05:18:32;;;;;;;20.88;12.10;;;20.10;56.10;;;;;;5072669;28;20066;-68
2022/12/21 05:20:58;;;;;;;22.98;11.15;;;20.10;56.00;;;;;;5055167;28;20033;-69
2022/12/21 05:23:24;;;;;;;19.02;10.40;;;20.00;56.00;;;;;;5058240;28;20036;-68
2022/12/21 05:25:50;;;;;;;20.70;11.50;;;20.10;56.20;;;;;;5032878;28;20045;-68
2022/12/21 05:28:16;;;;;;;21.15;12.55;;;20.10;56.10;;;;;;5037143;28;20178;-68
2022/12/21 05:30:42;;;;;;;23.77;12.55;;;20.00;56.00;;;;;;5019214;28;20110;-67
2022/12/21 05:33:08;;;;;;;21.30;12.48;;;20.00;56.00;;;;;;5016393;28;20099;-69
2022/12/21 05:35:39;;;;;;;24.20;10.95;;;20.00;55.90;;;;;;5000668;28;20405;-66
2022/12/21 05:38:05;;;;;;;20.60;11.07;;;20.10;55.90;;;;;;5061759;28;20120;-68
2022/12/21 05:40:31;;;;;;;22.10;11.48;;;20.10;55.80;;;;;;5067302;28;20403;-67
2022/12/21 05:42:57;;;;;;;21.60;11.55;;;20.00;55.70;;;;;;5070087;28;20043;-69
2022/12/21 05:45:22;;;;;;;25.15;11.32;;;20.10;55.60;;;;;;5061663;28;20115;-69
2022/12/21 05:47:48;;;;;;;22.33;10.75;;;20.10;55.60;;;;;;5072013;28;20032;-68
2022/12/21 05:50:14;;;;;;;17.30;10.18;;;20.00;55.40;;;;;;5068901;28;20058;-69
2022/12/21 05:52:40;;;;;;;23.70;11.23;;;19.90;55.50;;;;;;5020088;28;20456;-68
2022/12/21 05:55:07;;;;;;;22.15;11.30;;;20.10;55.50;;;;;;5054332;28;20086;-68
2022/12/21 05:57:33;;;;;;;22.75;10.88;;;20.20;55.30;;;;;;5071777;28;20032;-69
2022/12/21 05:59:58;;;;;;;18.75;11.65;;;20.20;55.30;;;;;;5061362;28;20033;-69
2022/12/21 06:02:24;;;;;;;22.98;11.35;;;20.10;55.30;;;;;;5032550;28;20036;-68
2022/12/21 06:04:50;;;;;;;21.15;11.20;;;20.10;55.30;;;;;;5009798;28;20124;-68
2022/12/21 06:07:17;;;;;;;21.80;11.68;;;20.20;55.20;;;;;;5042785;28;20143;-69
2022/12/21 06:09:43;;;;;;;21.48;11.10;;;20.20;55.10;;;;;;5071743;28;20473;-68
2022/12/21 06:12:09;;;;;;;19.70;10.30;;;20.20;55.00;;;;;;5076012;28;20123;-69
2022/12/21 06:14:35;;;;;;;20.80;11.52;;;20.10;55.00;;;;;;5083054;28;20172;-68
2022/12/21 06:17:01;;;;;;;24.20;11.93;;;20.10;54.90;;;;;;5084612;28;20039;-66
2022/12/21 06:19:27;;;;;;;23.73;12.15;;;20.10;54.70;;;;;;5080093;28;20129;-68
2022/12/21 06:21:54;;;;;;;17.92;9.00;;;20.10;55.00;;;;;;5080836;28;20028;-68
2022/12/21 06:24:21;;;;;;;19.73;10.73;;;20.00;51.40;;;;;;5088511;28;20084;-68
2022/12/21 06:26:47;;;;;;;11.85;7.03;;;20.20;48.10;;;;;;5074024;28;20422;-67
2022/12/21 06:29:13;;;;;;;14.50;8.50;;;20.20;46.00;;;;;;5069406;28;20068;-69
2022/12/21 06:31:39;;;;;;;10.88;6.45;;;20.20;44.70;;;;;;5082247;28;20170;-68
2022/12/21 06:34:05;;;;;;;10.90;6.95;;;20.30;44.60;;;;;;5074362;28;20032;-68
2022/12/21 06:36:31;;;;;;;15.13;8.82;;;20.40;43.40;;;;;;5071369;28;20048;-67
2022/12/21 06:38:57;;;;;;;15.10;8.93;;;20.40;43.20;;;;;;5071040;28;20086;-68
2022/12/21 06:41:23;;;;;;;14.77;8.25;;;20.40;42.70;;;;;;5071540;28;20470;-68
2022/12/21 06:43:50;;;;;;;17.75;10.93;;;20.40;43.90;;;;;;5086027;28;20043;-67
2022/12/21 06:46:18;;;;;;;15.57;9.88;;;20.40;43.30;;;;;;5073182;28;20040;-68
2022/12/21 06:48:44;;;;;;;18.83;10.85;;;20.40;44.00;;;;;;5070293;28;20051;-70
2022/12/21 06:51:12;;;;;;;22.40;14.00;;;20.40;43.80;;;;;;5071027;28;20037;-68
2022/12/21 06:53:41;;;;;;;19.80;10.55;;;20.50;43.40;;;;;;5070949;28;20028;-69
2022/12/21 06:56:12;;;;;;;21.30;12.25;;;20.70;46.00;;;;;;5070675;28;20044;-69
2022/12/21 06:58:38;;;;;;;22.30;12.57;;;20.80;66.10;;;;;;5092331;28;20036;-69
2022/12/21 07:01:13;;;;;;;24.25;12.60;;;21.00;61.00;;;;;;5085032;28;20062;-68
2022/12/21 07:03:40;;;;;;;20.85;11.82;;;21.00;60.40;;;;;;5081965;28;20499;-68
2022/12/21 07:06:07;;;;;;;20.52;11.18;;;21.00;47.00;;;;;;5079602;28;20072;-68
2022/12/21 07:08:34;;;;;;;14.60;8.80;;;21.20;46.20;;;;;;5070540;28;20487;-68
2022/12/21 07:11:07;;;;;;;13.88;9.10;;;21.20;43.50;;;;;;5068541;28;20051;-68
2022/12/21 07:13:38;;;;;;;15.50;9.60;;;21.30;43.50;;;;;;5051628;28;20334;-69
2022/12/21 07:16:05;;;;;;;20.77;12.65;;;21.40;42.60;;;;;;5057035;28;20108;-69
2022/12/21 07:18:31;;;;;;;15.43;10.63;;;21.40;43.80;;;;;;5059735;28;20031;-70
2022/12/21 07:21:05;;;;;;;7.88;4.10;;;21.50;43.80;;;;;;5058817;28;20032;-69
2022/12/21 07:23:33;;;;;;;9.20;3.38;;;21.50;52.40;;;;;;5052870;28;20039;-69
2022/12/21 07:25:59;;;;;;;6.10;2.90;;;21.80;56.40;;;;;;5074607;28;20040;-69
2022/12/21 07:28:25;;;;;;;2.28;1.45;;;21.90;56.10;;;;;;5034139;28;20375;-72
2022/12/21 07:31:02;;;;;;;11.88;4.32;;;22.10;55.40;;;;;;5058089;28;20033;-72
2022/12/21 07:33:29;;;;;;;7.03;3.83;;;22.20;55.70;;;;;;5039165;28;20028;-73
2022/12/21 07:36:02;;;;;;;7.65;4.28;;;22.10;55.30;;;;;;5070618;28;20032;-72
2022/12/21 07:38:30;;;;;;;8.23;4.57;;;22.20;54.90;;;;;;5061224;28;20083;-72
2022/12/21 07:40:57;;;;;;;6.10;4.18;;;22.20;54.80;;;;;;5049431;28;20475;-75
2022/12/21 07:43:23;;;;;;;4.28;3.10;;;22.40;53.70;;;;;;5058023;28;20501;-70
2022/12/21 07:46:06;;;;;;;7.23;4.63;;;22.30;52.60;;;;;;5039100;28;20032;-71
2022/12/21 07:48:34;;;;;;;8.77;4.70;;;22.40;51.90;;;;;;5066792;28;20082;-69
2022/12/21 07:51:00;;;;;;;9.60;5.00;;;22.40;51.40;;;;;;5070405;28;20074;-70
2022/12/21 07:53:26;;;;;;;4.35;2.67;;;22.40;51.60;;;;;;5041975;28;20421;-70
2022/12/21 07:55:52;;;;;;;4.70;3.25;;;22.50;51.10;;;;;;5072036;28;20024;-70
2022/12/21 07:58:18;;;;;;;24.75;14.75;;;22.40;50.70;;;;;;5065666;28;20111;-70
2022/12/21 08:00:45;;;;;;;25.05;12.52;;;22.40;43.80;;;;;;5060679;28;20451;-70
2022/12/21 08:03:11;;;;;;;20.40;14.00;;;22.30;38.50;;;;;;5054674;28;20108;-70
2022/12/21 08:05:38;;;;;;;18.73;12.32;;;22.30;36.90;;;;;;5059402;28;20025;-70
2022/12/21 08:08:04;;;;;;;21.75;13.15;;;22.20;36.10;;;;;;5070130;28;20055;-71
2022/12/21 08:10:30;;;;;;;21.55;13.23;;;22.30;35.30;;;;;;5073536;28;20072;-71
2022/12/21 08:12:56;;;;;;;21.48;12.70;;;22.30;34.90;;;;;;5061704;28;20486;-70
2022/12/21 08:15:22;;;;;;;20.73;11.82;;;22.30;35.40;;;;;;5058509;28;20373;-69
2022/12/21 08:17:51;;;;;;;18.27;11.35;;;22.30;34.80;;;;;;5045524;28;20044;-68
2022/12/21 08:20:17;;;;;;;18.13;10.25;;;22.40;34.50;;;;;;5032397;28;20055;-68
2022/12/21 08:22:44;;;;;;;21.70;12.85;;;22.30;33.50;;;;;;5044511;28;20066;-68
2022/12/21 08:25:10;;;;;;;15.30;10.35;;;22.40;33.30;;;;;;5062999;28;20056;-69
2022/12/21 08:27:37;;;;;;;21.05;11.60;;;22.40;34.10;;;;;;5068341;28;20020;-69
2022/12/21 08:30:04;;;;;;;48.08;17.17;;;22.50;40.80;;;;;;5018844;28;20105;-70
2022/12/21 08:32:30;;;;;;;17.02;11.05;;;22.60;46.20;;;;;;5058506;28;20037;-72
2022/12/21 08:34:56;;;;;;;21.10;11.43;;;22.70;34.60;;;;;;5071468;28;20036;-71
2022/12/21 08:37:22;;;;;;;20.60;12.43;;;22.70;31.40;;;;;;5071622;28;20063;-71
2022/12/21 08:39:48;;;;;;;21.95;13.00;;;22.60;32.00;;;;;;5060910;28;20059;-70
2022/12/21 08:42:14;;;;;;;17.77;10.70;;;22.60;30.90;;;;;;5062529;28;20047;-70
2022/12/21 08:44:40;;;;;;;19.95;10.43;;;22.60;31.80;;;;;;5045742;28;20040;-69
2022/12/21 08:47:06;;;;;;;24.35;13.98;;;22.50;31.60;;;;;;5052512;28;20119;-71
2022/12/21 08:49:32;;;;;;;25.70;14.07;;;22.70;41.60;;;;;;5050842;28;20112;-71
2022/12/21 08:51:59;;;;;;;26.33;15.40;;;22.60;46.80;;;;;;5065937;28;20040;-71
2022/12/21 08:54:26;;;;;;;23.52;14.65;;;22.30;48.10;;;;;;5061886;28;20425;-71
2022/12/21 08:56:52;;;;;;;31.38;15.50;;;22.10;49.30;;;;;;5063471;28;20032;-71
2022/12/21 08:59:18;;;;;;;22.55;13.07;;;22.00;50.30;;;;;;5050510;28;20029;-71
2022/12/21 09:01:44;;;;;;;27.67;13.63;;;21.80;50.90;;;;;;5051384;28;20052;-70
2022/12/21 09:04:11;;;;;;;28.48;16.08;;;21.80;51.50;;;;;;5061655;28;20028;-70
2022/12/21 09:06:37;;;;;;;22.70;14.45;;;21.80;52.00;;;;;;5050978;28;20059;-72
2022/12/21 09:09:03;;;;;;;30.98;15.10;;;21.70;52.40;;;;;;5057704;28;21925;-70
2022/12/21 09:11:29;;;;;;;27.75;16.10;;;21.70;52.90;;;;;;5050064;28;20064;-70
2022/12/21 09:13:55;;;;;;;24.25;13.65;;;21.60;53.00;;;;;;5069750;28;20470;-70
2022/12/21 09:16:23;;;;;;;27.63;13.45;;;21.50;53.40;;;;;;5055957;28;20025;-70
2022/12/21 09:18:50;;;;;;;23.05;12.27;;;21.50;54.00;;;;;;5071587;28;20048;-70
2022/12/21 09:21:19;;;;;;;21.33;12.73;;;21.40;54.10;;;;;;5059749;28;20028;-70
2022/12/21 09:23:46;;;;;;;29.17;15.07;;;21.30;54.50;;;;;;5058254;28;20021;-70
2022/12/21 09:26:13;;;;;;;26.70;14.65;;;21.30;54.80;;;;;;5056374;28;20036;-77
2022/12/21 09:28:39;;;;;;;21.05;12.75;;;21.20;55.70;;;;;;5032974;28;20033;-70
2022/12/21 09:31:11;;;;;;;22.95;13.38;;;21.20;55.90;;;;;;5051251;28;20063;-72
2022/12/21 09:33:38;;;;;;;26.00;13.75;;;21.30;56.20;;;;;;5054005;28;20028;-70
2022/12/21 09:36:05;;;;;;;25.98;14.63;;;21.20;56.30;;;;;;5067842;28;20036;-69
2022/12/21 09:38:32;;;;;;;26.42;14.75;;;21.10;56.50;;;;;;5061685;28;20025;-69
2022/12/21 09:41:13;;;;;;;28.02;14.15;;;21.10;56.50;;;;;;5056951;28;20029;-69
2022/12/21 09:44:37;;;;;;;25.73;12.98;;;21.10;57.00;;;;;;5057582;28;20028;-69
2022/12/21 09:47:04;;;;;;;;;;;21.10;57.10;;;;;;4925337;29;20108;-69
2022/12/21 09:49:41;;;;;;;28.95;14.98;;;21.20;57.10;;;;;;4921444;29;20380;-69
2022/12/21 09:52:18;;;;;;;30.60;15.30;;;21.10;57.30;;;;;;4925256;29;20048;-72
2022/12/21 09:54:57;;;;;;;30.92;14.18;;;21.30;57.50;;;;;;4925891;29;20087;-69
2022/12/21 09:57:28;;;;;;;31.65;14.48;;;21.20;57.30;;;;;;4912726;29;20044;-70
2022/12/21 09:59:54;;;;;;;24.38;13.68;;;21.20;57.30;;;;;;4912456;29;20079;-71
2022/12/21 10:02:23;;;;;;;30.02;15.27;;;21.20;57.30;;;;;;4928286;29;20514;-71
2022/12/21 10:05:06;;;;;;;30.52;15.90;;;21.30;57.40;;;;;;4929830;28;20047;-73
2022/12/21 10:07:34;;;;;;;25.23;13.98;;;21.40;57.50;;;;;;4947952;28;20051;-70
2022/12/21 10:10:22;;;;;;;25.63;14.60;;;21.40;57.50;;;;;;4946268;28;20047;-70
2022/12/21 10:13:04;;;;;;;25.80;15.23;;;21.30;57.60;;;;;;4949353;28;20043;-70
2022/12/21 10:15:45;;;;;;;28.27;14.35;;;21.10;57.60;;;;;;4946984;28;20039;-73
2022/12/21 10:18:33;;;;;;;28.73;15.05;;;21.20;57.70;;;;;;4939006;28;20036;-69
2022/12/21 10:21:10;;;;;;;27.67;15.30;;;21.20;57.80;;;;;;4932521;29;20039;-70
2022/12/21 10:23:49;;;;;;;30.92;17.20;;;21.30;57.80;;;;;;5014987;28;20045;-71
2022/12/21 10:26:20;;;;;;;28.83;15.23;;;21.10;57.70;;;;;;5021226;28;20029;-70
2022/12/21 10:28:46;;;;;;;27.70;13.65;;;21.20;57.90;;;;;;5058678;28;20048;-69
2022/12/21 10:31:26;;;;;;;27.17;15.30;;;21.20;58.00;;;;;;5055611;28;20083;-70
2022/12/21 10:33:55;;;;;;;29.08;15.13;;;21.30;57.90;;;;;;5049566;28;20115;-69
2022/12/21 10:36:31;;;;;;;27.80;14.07;;;21.30;57.80;;;;;;5053988;28;20477;-69
2022/12/21 10:38:57;;;;;;;23.58;14.13;;;21.30;58.10;;;;;;5071709;28;20067;-69
2022/12/21 10:41:29;;;;;;;16.58;10.50;;;21.30;61.10;;;;;;5049334;28;20098;-70
2022/12/21 10:43:59;;;;;;;32.58;12.48;;;21.50;47.20;;;;;;5051262;28;20493;-70
2022/12/21 10:46:30;;;;;;;20.98;11.65;;;21.80;41.50;;;;;;5062231;28;20523;-72
2022/12/21 10:49:11;;;;;;;16.50;10.30;;;22.10;39.60;;;;;;5055278;28;20828;-72
2022/12/21 10:51:37;;;;;;;18.55;10.82;;;22.20;39.70;;;;;;5051303;28;20060;-69
2022/12/21 10:54:05;;;;;;;19.08;10.63;;;22.30;40.20;;;;;;5022093;28;20493;-70
2022/12/21 10:56:35;;;;;;;17.80;9.98;;;22.40;36.90;;;;;;5064988;28;20373;-70
2022/12/21 10:59:14;;;;;;;18.98;11.52;;;22.60;36.50;;;;;;5058211;28;20060;-71
2022/12/21 11:01:40;;;;;;;17.88;12.07;;;22.70;36.90;;;;;;5050753;28;20033;-71
2022/12/21 11:04:15;;;;;;;16.38;11.27;;;22.70;36.10;;;;;;5050952;28;20033;-71
2022/12/21 11:06:59;;;;;;;16.88;9.27;;;22.70;35.50;;;;;;5051139;28;20057;-69
2022/12/21 11:09:28;;;;;;;17.65;10.02;;;22.90;37.80;;;;;;5051817;28;20048;-69
2022/12/21 11:11:55;;;;;;;17.42;10.15;;;22.90;35.90;;;;;;5049347;28;20477;-69
2022/12/21 11:14:22;;;;;;;18.90;11.90;;;23.10;36.70;;;;;;5054797;28;20033;-71
2022/12/21 11:16:48;;;;;;;19.73;11.23;;;23.00;36.30;;;;;;5051751;28;20032;-68
2022/12/21 11:19:21;;;;;;;14.18;9.82;;;23.20;41.00;;;;;;5060742;28;20029;-68
2022/12/21 11:21:50;;;;;;;17.70;11.68;;;23.40;43.50;;;;;;5050960;28;20036;-69
2022/12/21 11:24:28;;;;;;;18.17;11.60;;;23.50;37.00;;;;;;5069722;28;20043;-69
2022/12/21 11:27:00;;;;;;;16.40;10.45;;;23.60;43.80;;;;;;5058448;28;20528;-69
2022/12/21 11:29:31;;;;;;;25.20;15.10;;;23.70;46.30;;;;;;5061375;28;20047;-70
2022/12/21 11:32:08;;;;;;;24.35;13.32;;;23.80;50.30;;;;;;5058117;28;20036;-68
2022/12/21 11:34:37;;;;;;;23.33;12.95;;;23.90;51.90;;;;;;5056150;28;20083;-69
2022/12/21 11:37:21;;;;;;;25.92;14.80;;;23.80;52.30;;;;;;5017935;28;20110;-68
2022/12/21 11:39:47;;;;;;;26.80;14.70;;;23.80;52.90;;;;;;5040681;28;20063;-69
2022/12/21 11:42:22;;;;;;;28.80;13.77;;;23.70;53.30;;;;;;5037325;28;20470;-70
2022/12/21 11:45:18;;;;;;;32.10;17.73;;;23.70;53.90;;;;;;5059947;28;20533;-69
2022/12/21 11:48:06;;;;;;;29.33;15.70;;;23.70;54.30;;;;;;5018327;28;20486;-69
2022/12/21 11:50:34;;;;;;;29.00;16.45;;;23.40;55.00;;;;;;5060688;28;20029;-74
2022/12/21 11:53:16;;;;;;;26.60;13.18;;;23.60;55.40;;;;;;5050772;28;20041;-70
2022/12/21 11:56:05;;;;;;;24.70;13.57;;;23.40;54.70;;;;;;5072604;28;20040;-70
2022/12/21 11:58:45;;;;;;;27.60;15.20;;;23.50;55.30;;;;;;5062994;28;20032;-70
2022/12/21 12:01:17;;;;;;;26.15;15.23;;;23.50;55.40;;;;;;5032425;28;20470;-69
2022/12/21 12:04:09;;;;;;;25.10;13.13;;;23.60;55.90;;;;;;5044167;28;20036;-70
2022/12/21 12:06:40;;;;;;;30.13;15.80;;;23.50;56.40;;;;;;4988284;28;20042;-70
2022/12/21 12:09:51;;;;;;;29.98;15.43;;;23.50;56.20;;;;;;4994581;28;20064;-70
2022/12/21 12:13:03;;;;;;;28.58;15.70;;;23.60;57.60;;;;;;4968947;28;20031;-71
2022/12/21 12:15:35;;;;;;;24.80;13.25;;;23.70;58.00;;;;;;4870166;29;20033;-69
2022/12/21 12:18:17;;;;;;;27.52;14.13;;;23.60;57.90;;;;;;4863075;29;20061;-69
2022/12/21 12:21:06;;;;;;;27.90;16.45;;;23.70;57.40;;;;;;4874193;29;20479;-71
2022/12/21 12:23:32;;;;;;;31.23;17.17;;;23.50;57.30;;;;;;4872608;29;20456;-73
2022/12/21 12:26:35;;;;;;;26.67;14.82;;;23.50;57.70;;;;;;4873905;29;20072;-70
2022/12/21 12:29:16;;;;;;;29.67;15.45;;;23.40;56.00;;;;;;4871431;29;20641;-69
2022/12/21 12:32:00;;;;;;;29.30;16.35;;;23.40;57.80;;;;;;4860100;29;20053;-69
2022/12/21 12:34:45;;;;;;;26.63;15.32;;;23.40;57.70;;;;;;4858896;29;20546;-68
2022/12/21 12:37:31;;;;;;;25.83;15.65;;;23.30;58.00;;;;;;4872279;29;20077;-69
2022/12/21 12:40:29;;;;;;;26.10;14.55;;;23.30;57.90;;;;;;4877231;29;20078;-69
2022/12/21 12:43:16;;;;;;;28.98;15.93;;;23.40;58.10;;;;;;4884973;29;20119;-69
2022/12/21 12:46:04;;;;;;;29.13;16.50;;;23.40;57.90;;;;;;4932759;29;20102;-69
2022/12/21 12:48:30;;;;;;;27.42;15.25;;;23.40;57.80;;;;;;4937353;29;20043;-69
2022/12/21 12:51:12;;;;;;;25.27;13.98;;;23.50;57.90;;;;;;4963582;28;20381;-69
2022/12/21 12:54:04;;;;;;;25.83;14.47;;;23.50;58.20;;;;;;5029109;28;20174;-69
2022/12/21 12:56:59;;;;;;;26.70;12.50;;;23.40;58.20;;;;;;5010304;28;20093;-69
2022/12/21 12:59:31;;;;;;;25.30;15.55;;;23.50;57.90;;;;;;4958407;28;20750;-69
2022/12/21 13:02:12;;;;;;;26.77;14.90;;;23.40;57.50;;;;;;4970903;28;20130;-69
2022/12/21 13:04:56;;;;;;;22.92;13.23;;;23.40;57.80;;;;;;4954616;28;20043;-69
2022/12/21 13:07:47;;;;;;;30.70;18.23;;;23.40;57.90;;;;;;4971402;28;20043;-69